Time;durP1;ratioP1;P1;durP2;ratioP2;P2;SDS_P1;SDS_P2;PMS_P1;PMS_P2;Temp;Humidity;BMP_temperature;BMP_pressure;BME280_temperature;BME280_humidity;BME280_pressure;Samples;Min_cycle;Max_cycle;Signal;HPM_P1;HPM_P2
2023/03/13 00:02:03;;;;;;;;;;;;;;;;;;;;;
2023/03/13 00:08:15;;;;;;;80.57;9.93;;;10.60;99.90;;;;;;4992133;28;20190;-85
2023/03/13 00:21:21;;;;;;;74.95;9.45;;;10.60;99.90;;;;;;4968426;28;20772;-84
2023/03/13 00:31:26;;;;;;;85.88;13.57;;;10.70;99.90;;;;;;5014818;28;20250;-84
2023/03/13 00:42:35;;;;;;;83.05;12.88;;;10.80;99.90;;;;;;5002229;28;20223;-84
2023/03/13 00:45:26;;;;;;;;;;;;;;;;;;;;;
2023/03/13 00:48:46;;;;;;;;;;;;;;;;;;;;;
2023/03/13 00:58:58;;;;;;;;;;;;;;;;;;;;;
2023/03/13 01:08:30;;;;;;;77.55;11.48;;;10.60;99.90;;;;;;5004448;28;20180;-84
2023/03/13 01:11:39;;;;;;;78.80;9.60;;;10.60;99.90;;;;;;5037441;28;20671;-84
2023/03/13 01:14:51;;;;;;;82.07;10.43;;;10.70;99.90;;;;;;4975185;28;20583;-86
2023/03/13 01:17:35;;;;;;;;;;;;;;;;;;;;;
2023/03/13 01:20:26;;;;;;;;;;;;;;;;;;;;;
2023/03/13 01:26:09;;;;;;;75.60;8.15;;;10.90;99.90;;;;;;4985477;28;20191;-86
2023/03/13 01:32:36;;;;;;;76.05;7.45;;;10.90;99.90;;;;;;5004840;23;20240;-86
2023/03/13 01:36:03;;;;;;;76.63;8.23;;;11.00;99.90;;;;;;5057603;28;20203;-85
2023/03/13 01:39:14;;;;;;;74.43;6.78;;;11.00;99.90;;;;;;5055629;28;20230;-84
2023/03/13 01:41:51;;;;;;;75.63;9.35;;;11.00;99.90;;;;;;5042128;28;20196;-84
2023/03/13 01:45:04;;;;;;;74.93;6.60;;;11.00;99.90;;;;;;5055012;28;20582;-84
2023/03/13 01:51:44;;;;;;;;;;;;;;;;;;;;;
2023/03/13 01:58:20;;;;;;;70.50;7.80;;;11.00;99.90;;;;;;4897282;29;20184;-84
2023/03/13 02:01:43;;;;;;;67.93;7.05;;;11.10;99.90;;;;;;4900591;29;20601;-85
2023/03/13 02:04:45;;;;;;;74.25;6.93;;;11.10;99.90;;;;;;4935114;29;20221;-85
2023/03/13 02:11:54;;;;;;;;;;;;;;;;;;;;;
2023/03/13 02:15:00;;;;;;;70.95;6.93;;;11.20;99.90;;;;;;4958765;29;20215;-84
2023/03/13 02:24:59;;;;;;;72.50;6.25;;;11.10;99.90;;;;;;4902170;29;20241;-85
2023/03/13 02:28:11;;;;;;;69.18;5.85;;;11.00;99.90;;;;;;4835841;29;20307;-84
2023/03/13 02:30:38;;;;;;;69.70;9.55;;;11.10;99.90;;;;;;4904516;29;20169;-86
2023/03/13 02:33:04;;;;;;;72.10;11.73;;;11.00;99.90;;;;;;4936392;28;20259;-86
2023/03/13 02:35:31;;;;;;;71.60;13.67;;;11.00;99.90;;;;;;5049284;28;20184;-86
2023/03/13 02:38:02;;;;;;;72.78;15.43;;;10.90;99.90;;;;;;5044386;28;20160;-86
2023/03/13 02:40:34;;;;;;;74.25;17.20;;;10.90;99.90;;;;;;5062406;28;20145;-86
2023/03/13 02:43:10;;;;;;;74.10;15.80;;;10.80;99.90;;;;;;5044726;28;20188;-86
2023/03/13 02:46:16;;;;;;;71.20;18.45;;;10.70;99.90;;;;;;5063614;28;20233;-86
2023/03/13 02:52:43;;;;;;;;;;;;;;;;;;;;;
2023/03/13 02:55:49;;;;;;;;;;;;;;;;;;;;;
2023/03/13 03:01:41;;;;;;;;;;;;;;;;;;;;;
2023/03/13 03:04:57;;;;;;;;;;;;;;;;;;;;;
2023/03/13 03:07:37;;;;;;;69.13;13.95;;;10.60;99.90;;;;;;4964157;28;20275;-86
2023/03/13 03:13:34;;;;;;;68.57;15.65;;;10.60;99.90;;;;;;5017393;28;20696;-84
2023/03/13 03:23:12;;;;;;;68.72;11.85;;;10.70;99.90;;;;;;5068165;23;20710;-85
2023/03/13 03:25:56;;;;;;;68.18;13.10;;;10.70;99.90;;;;;;5018474;28;20188;-85
2023/03/13 03:28:30;;;;;;;68.28;12.25;;;10.80;99.90;;;;;;5040336;28;20183;-86
2023/03/13 03:32:19;;;;;;;67.38;11.00;;;10.80;99.90;;;;;;5039656;28;20193;-84
2023/03/13 03:35:18;;;;;;;;;;;;;;;;;;;;;
2023/03/13 03:38:21;;;;;;;70.20;16.77;;;10.90;99.90;;;;;;5014574;28;20180;-84
2023/03/13 03:41:19;;;;;;;70.32;20.92;;;10.90;99.90;;;;;;4992308;28;20299;-85
2023/03/13 03:44:15;;;;;;;;;;;;;;;;;;;;;
2023/03/13 03:47:13;;;;;;;69.65;16.30;;;10.90;99.90;;;;;;5018341;28;20169;-84
2023/03/13 03:50:03;;;;;;;;;;;;;;;;;;;;;
2023/03/13 03:53:31;;;;;;;;;;;;;;;;;;;;;
2023/03/13 03:57:24;;;;;;;69.43;17.65;;;11.10;99.90;;;;;;4888014;29;20245;-85
2023/03/13 03:59:24;;;;;;;72.28;19.63;;;11.20;99.90;;;;;;4925288;29;20180;-86
2023/03/13 04:02:33;;;;;;;71.22;20.52;;;11.20;99.90;;;;;;4937572;29;20165;-85
2023/03/13 04:05:08;;;;;;;71.40;22.00;;;11.30;99.90;;;;;;4921123;29;20329;-85
2023/03/13 04:08:34;;;;;;;71.82;19.13;;;11.30;99.90;;;;;;4938439;29;20176;-84
2023/03/13 04:11:39;;;;;;;;;;;;;;;;;;;;;
2023/03/13 04:17:33;;;;;;;70.28;19.90;;;11.40;99.90;;;;;;4937696;29;20168;-84
2023/03/13 04:20:36;;;;;;;71.75;23.25;;;11.40;99.90;;;;;;5017607;28;20184;-84
2023/03/13 04:23:17;;;;;;;70.30;19.27;;;11.50;99.90;;;;;;5017787;28;20205;-84
2023/03/13 04:25:55;;;;;;;71.63;19.10;;;11.40;99.90;;;;;;5001536;28;20272;-86
2023/03/13 04:28:37;;;;;;;;;;;;;;;;;;;;;
2023/03/13 04:31:58;;;;;;;72.32;19.75;;;11.40;99.90;;;;;;5020728;28;20241;-86
2023/03/13 04:35:14;;;;;;;71.07;18.27;;;11.40;99.90;;;;;;5020395;28;20162;-86
2023/03/13 04:38:25;;;;;;;69.05;17.08;;;11.40;99.90;;;;;;5019828;28;20166;-85
2023/03/13 04:45:31;;;;;;;69.70;17.55;;;11.40;99.90;;;;;;4942729;29;20180;-84
2023/03/13 04:51:44;;;;;;;;;;;;;;;;;;;;;
2023/03/13 04:55:04;;;;;;;;;;;;;;;;;;;;;
2023/03/13 04:58:14;;;;;;;71.95;20.50;;;11.60;99.90;;;;;;5019634;28;20592;-85
2023/03/13 05:07:36;;;;;;;71.32;22.15;;;11.70;99.90;;;;;;4957772;29;20168;-84
2023/03/13 05:11:06;;;;;;;;;;;;;;;;;;;;;
2023/03/13 05:14:18;;;;;;;;;;;;;;;;;;;;;
2023/03/13 05:18:04;;;;;;;70.78;20.77;;;11.80;99.90;;;;;;4896901;29;20249;-85
2023/03/13 05:20:23;;;;;;;70.15;16.77;;;11.80;99.90;;;;;;4944020;29;20754;-84
2023/03/13 05:23:14;;;;;;;71.35;22.55;;;11.90;99.90;;;;;;4958897;28;20206;-84
2023/03/13 05:25:54;;;;;;;70.45;17.17;;;11.90;99.90;;;;;;5001807;28;20604;-85
2023/03/13 05:29:17;;;;;;;69.53;17.38;;;11.90;99.90;;;;;;5019611;28;20193;-84
2023/03/13 05:32:38;;;;;;;;;;;;;;;;;;;;;
2023/03/13 05:39:11;;;;;;;68.43;12.07;;;12.00;99.90;;;;;;5016853;28;20196;-84
2023/03/13 05:41:36;;;;;;;67.57;7.18;;;12.10;99.90;;;;;;5098343;22;20600;-80
2023/03/13 05:44:02;;;;;;;67.87;8.87;;;12.10;99.90;;;;;;5037638;28;20161;-80
2023/03/13 05:46:28;;;;;;;66.20;8.33;;;12.10;99.90;;;;;;5018961;28;20165;-80
2023/03/13 05:48:53;;;;;;;68.63;11.50;;;12.10;99.90;;;;;;5036506;28;20192;-80
2023/03/13 05:51:19;;;;;;;66.87;7.43;;;12.10;99.90;;;;;;5018854;28;20165;-79
2023/03/13 05:53:45;;;;;;;69.10;10.77;;;12.10;99.90;;;;;;5036464;28;20200;-80
2023/03/13 05:56:10;;;;;;;69.50;18.27;;;12.10;99.90;;;;;;5036974;28;20161;-80
2023/03/13 05:58:36;;;;;;;71.80;20.27;;;12.10;99.90;;;;;;5036841;28;20174;-80
2023/03/13 06:01:09;;;;;;;70.70;18.10;;;12.10;99.90;;;;;;5036616;28;20193;-80
2023/03/13 06:03:35;;;;;;;67.10;7.55;;;12.10;99.90;;;;;;5036456;28;20196;-80
2023/03/13 06:06:01;;;;;;;68.10;11.93;;;12.20;99.90;;;;;;5019338;28;20172;-80
2023/03/13 06:08:29;;;;;;;67.30;8.67;;;12.10;99.90;;;;;;5037252;28;20655;-80
2023/03/13 06:10:58;;;;;;;71.53;17.45;;;12.20;99.90;;;;;;5036060;28;20157;-80
2023/03/13 06:13:24;;;;;;;71.32;21.67;;;12.20;99.90;;;;;;5018594;28;20216;-80
2023/03/13 06:15:51;;;;;;;70.47;18.03;;;12.20;99.90;;;;;;5036131;28;20166;-80
2023/03/13 06:18:17;;;;;;;70.13;13.82;;;12.20;99.90;;;;;;5019101;28;20198;-80
2023/03/13 06:20:43;;;;;;;67.00;10.07;;;12.30;99.90;;;;;;5036299;28;20165;-80
2023/03/13 06:23:09;;;;;;;67.28;9.68;;;12.30;99.90;;;;;;5036425;28;20196;-80
2023/03/13 06:25:35;;;;;;;70.37;13.03;;;12.30;99.90;;;;;;5036014;28;20165;-80
2023/03/13 06:28:03;;;;;;;69.20;12.33;;;12.40;99.90;;;;;;5036317;28;20696;-80
2023/03/13 06:30:29;;;;;;;69.90;7.68;;;12.50;99.90;;;;;;5036517;28;20185;-80
2023/03/13 06:32:55;;;;;;;66.67;5.60;;;12.50;99.90;;;;;;5036552;28;20189;-80
2023/03/13 06:35:20;;;;;;;69.50;10.63;;;12.60;99.90;;;;;;5018752;28;20644;-80
2023/03/13 06:37:46;;;;;;;67.00;7.77;;;12.60;99.90;;;;;;5018969;28;20176;-81
2023/03/13 06:40:12;;;;;;;65.90;4.73;;;12.60;99.90;;;;;;5018712;28;20188;-79
2023/03/13 06:42:37;;;;;;;67.93;5.25;;;12.60;99.90;;;;;;5018764;28;20227;-80
2023/03/13 06:45:03;;;;;;;65.77;4.27;;;12.70;99.90;;;;;;5036082;28;20169;-80
2023/03/13 06:47:31;;;;;;;67.63;8.68;;;12.70;99.90;;;;;;5018389;28;20191;-80
2023/03/13 06:49:57;;;;;;;73.30;12.20;;;12.70;99.90;;;;;;5036051;28;20169;-80
2023/03/13 06:52:23;;;;;;;65.78;4.30;;;12.70;99.90;;;;;;5035766;28;20193;-79
2023/03/13 06:54:49;;;;;;;66.53;4.72;;;12.70;99.90;;;;;;5036209;28;20254;-79
2023/03/13 06:57:14;;;;;;;67.97;4.80;;;12.80;99.90;;;;;;5035913;28;20567;-80
2023/03/13 06:59:40;;;;;;;65.67;4.10;;;12.80;99.90;;;;;;5038888;28;20191;-80
2023/03/13 07:02:07;;;;;;;67.03;4.80;;;12.80;99.90;;;;;;5022095;28;20214;-79
2023/03/13 07:04:36;;;;;;;67.90;5.03;;;12.90;99.90;;;;;;5021893;28;20180;-80
2023/03/13 07:07:02;;;;;;;67.18;4.53;;;12.90;99.90;;;;;;5039254;28;20173;-80
2023/03/13 07:09:28;;;;;;;66.43;4.67;;;12.90;99.90;;;;;;5022294;28;20161;-80
2023/03/13 07:11:54;;;;;;;69.50;6.10;;;13.00;99.90;;;;;;5021390;28;20186;-80
2023/03/13 07:14:19;;;;;;;66.03;5.10;;;13.00;99.90;;;;;;5039175;28;20528;-80
2023/03/13 07:16:45;;;;;;;70.50;6.40;;;13.00;99.90;;;;;;5039566;28;20415;-80
2023/03/13 07:19:11;;;;;;;66.33;5.70;;;13.10;99.90;;;;;;5021365;28;20227;-80
2023/03/13 07:21:37;;;;;;;67.82;6.65;;;13.20;99.90;;;;;;5039584;28;20185;-80
2023/03/13 07:24:03;;;;;;;67.03;6.37;;;13.10;99.90;;;;;;5039807;28;20173;-79
2023/03/13 07:26:29;;;;;;;67.85;6.38;;;13.20;99.90;;;;;;5020857;28;20579;-79
2023/03/13 07:28:55;;;;;;;66.20;5.57;;;13.20;99.90;;;;;;5037888;28;20161;-79
2023/03/13 07:31:22;;;;;;;69.07;6.22;;;13.20;99.90;;;;;;5037715;28;20150;-79
2023/03/13 07:33:51;;;;;;;68.85;5.30;;;13.20;99.90;;;;;;5037359;28;20177;-80
2023/03/13 07:36:17;;;;;;;66.63;5.03;;;13.30;99.90;;;;;;5038246;28;20191;-80
2023/03/13 07:38:47;;;;;;;67.37;5.30;;;13.40;99.90;;;;;;5039630;28;20245;-80
2023/03/13 07:41:13;;;;;;;68.32;4.47;;;13.50;99.90;;;;;;5038949;28;20505;-80
2023/03/13 07:43:38;;;;;;;66.40;5.27;;;13.50;99.90;;;;;;5039105;28;20664;-80
2023/03/13 07:46:06;;;;;;;66.77;4.03;;;13.50;99.90;;;;;;5039166;28;20191;-80
2023/03/13 07:48:40;;;;;;;71.00;4.45;;;13.60;99.90;;;;;;5039183;28;20176;-80
2023/03/13 07:51:09;;;;;;;66.82;4.25;;;13.60;99.90;;;;;;5039422;28;20161;-80
2023/03/13 07:53:35;;;;;;;67.70;4.35;;;13.70;99.90;;;;;;5038766;28;20181;-80
2023/03/13 07:56:12;;;;;;;71.43;4.73;;;13.70;99.90;;;;;;5038804;28;20162;-80
2023/03/13 07:58:39;;;;;;;66.85;5.25;;;13.80;99.90;;;;;;5039392;28;20613;-80
2023/03/13 08:01:25;;;;;;;68.53;5.25;;;13.80;99.90;;;;;;5038380;28;20592;-80
2023/03/13 08:03:55;;;;;;;72.15;6.80;;;13.70;99.90;;;;;;5020974;28;20213;-80
2023/03/13 08:06:25;;;;;;;72.00;4.63;;;13.70;99.90;;;;;;5038689;28;20161;-80
2023/03/13 08:08:52;;;;;;;71.25;5.32;;;13.80;99.90;;;;;;5038629;28;20184;-80
2023/03/13 08:11:20;;;;;;;68.35;4.85;;;13.80;99.90;;;;;;5037691;28;20172;-80
2023/03/13 08:13:48;;;;;;;69.70;4.85;;;13.80;99.90;;;;;;5038553;28;20243;-80
2023/03/13 08:16:25;;;;;;;67.57;5.05;;;13.70;99.90;;;;;;5020121;28;20184;-80
2023/03/13 08:18:53;;;;;;;71.13;6.70;;;13.70;99.90;;;;;;5020854;28;20199;-80
2023/03/13 08:21:33;;;;;;;68.07;5.10;;;13.80;99.90;;;;;;5020763;28;20212;-80
2023/03/13 08:24:05;;;;;;;67.53;5.73;;;13.80;99.90;;;;;;5039031;28;20182;-80
2023/03/13 08:26:35;;;;;;;69.53;5.43;;;13.70;99.90;;;;;;5038347;28;20420;-80
2023/03/13 08:29:07;;;;;;;69.40;5.45;;;13.70;99.90;;;;;;5038435;28;20532;-80
2023/03/13 08:31:51;;;;;;;68.30;5.60;;;13.70;99.90;;;;;;5020044;28;20215;-80
2023/03/13 08:34:18;;;;;;;66.90;5.47;;;13.80;99.90;;;;;;5039027;28;20415;-80
2023/03/13 08:36:44;;;;;;;68.30;4.97;;;13.80;99.90;;;;;;5037929;28;20169;-79
2023/03/13 08:39:15;;;;;;;71.57;5.80;;;13.80;99.90;;;;;;5019906;28;20268;-79
2023/03/13 08:41:41;;;;;;;68.53;6.10;;;13.90;99.90;;;;;;5037419;28;20193;-80
2023/03/13 08:44:10;;;;;;;65.77;4.90;;;13.90;99.90;;;;;;5038193;28;20165;-80
2023/03/13 08:46:39;;;;;;;67.43;5.53;;;13.90;99.90;;;;;;5037628;28;20462;-79
2023/03/13 08:49:06;;;;;;;69.40;6.50;;;13.80;99.90;;;;;;5038070;28;20479;-80
2023/03/13 08:51:36;;;;;;;69.13;5.40;;;13.80;99.90;;;;;;5019723;28;20416;-80
2023/03/13 08:54:03;;;;;;;69.50;5.32;;;13.80;99.90;;;;;;5037540;28;20175;-80
2023/03/13 08:56:29;;;;;;;66.47;5.50;;;13.90;99.90;;;;;;5037707;28;20655;-80
2023/03/13 08:58:58;;;;;;;66.20;5.30;;;13.90;99.90;;;;;;5038049;28;20166;-79
2023/03/13 09:01:28;;;;;;;68.32;6.13;;;13.90;99.90;;;;;;5019362;28;20223;-79
2023/03/13 09:03:54;;;;;;;69.13;4.80;;;13.80;99.90;;;;;;5019295;28;20211;-80
2023/03/13 09:06:20;;;;;;;69.07;5.97;;;13.80;99.90;;;;;;5037062;28;20169;-79
2023/03/13 09:08:49;;;;;;;72.00;5.20;;;13.80;99.90;;;;;;5019529;28;20408;-81
2023/03/13 09:11:16;;;;;;;68.50;5.60;;;13.80;99.90;;;;;;5036933;28;20404;-80
2023/03/13 09:13:47;;;;;;;68.13;5.18;;;13.80;99.90;;;;;;5019278;28;20416;-80
2023/03/13 09:16:19;;;;;;;66.35;5.70;;;13.90;99.90;;;;;;5036956;28;20153;-80
2023/03/13 09:18:44;;;;;;;70.93;5.70;;;13.90;99.90;;;;;;5037027;28;20150;-79
2023/03/13 09:21:19;;;;;;;66.07;4.80;;;13.90;99.90;;;;;;5036337;28;20453;-80
2023/03/13 09:23:46;;;;;;;67.00;5.88;;;14.00;99.90;;;;;;5036639;28;20910;-80
2023/03/13 09:26:12;;;;;;;66.80;5.80;;;14.00;99.90;;;;;;5018916;28;20177;-80
2023/03/13 09:28:40;;;;;;;66.97;4.90;;;14.00;99.90;;;;;;5036794;28;20410;-80
2023/03/13 09:31:15;;;;;;;71.40;5.25;;;13.90;99.90;;;;;;5036904;28;20166;-80
2023/03/13 09:33:41;;;;;;;74.95;5.85;;;14.00;99.90;;;;;;5037165;28;20188;-80
2023/03/13 09:36:08;;;;;;;66.22;4.97;;;14.00;99.90;;;;;;5037585;28;20161;-80
2023/03/13 09:38:34;;;;;;;68.80;4.77;;;14.00;99.90;;;;;;5037209;28;20225;-80
2023/03/13 09:41:57;;;;;;;67.93;4.43;;;14.00;99.90;;;;;;5017823;28;20902;-80
2023/03/13 09:44:28;;;;;;;67.75;5.50;;;14.00;99.90;;;;;;4975982;28;20415;-80
2023/03/13 09:47:02;;;;;;;70.95;4.80;;;14.00;99.90;;;;;;4976338;28;20156;-80
2023/03/13 09:49:36;;;;;;;67.72;4.55;;;14.00;99.90;;;;;;5008561;28;20641;-80
2023/03/13 09:52:21;;;;;;;68.05;5.72;;;14.00;99.90;;;;;;5037112;28;20256;-80
2023/03/13 09:54:49;;;;;;;67.73;5.03;;;14.00;99.90;;;;;;5036927;28;20585;-80
2023/03/13 09:57:51;;;;;;;66.00;5.30;;;14.00;99.90;;;;;;5037303;28;20415;-81
2023/03/13 10:00:49;;;;;;;68.35;4.80;;;14.10;99.90;;;;;;5002836;28;20411;-80
2023/03/13 10:03:37;;;;;;;86.57;7.47;;;14.20;99.90;;;;;;5025205;28;20615;-80
2023/03/13 10:06:23;;;;;;;71.53;6.17;;;14.40;99.90;;;;;;5036798;28;20400;-80
2023/03/13 10:08:49;;;;;;;69.23;5.57;;;14.50;99.90;;;;;;5036727;28;20449;-80
2023/03/13 10:11:45;;;;;;;68.63;6.18;;;14.70;99.90;;;;;;5037027;28;20406;-80
2023/03/13 10:14:38;;;;;;;67.77;5.37;;;14.70;99.90;;;;;;5036891;28;20207;-79
2023/03/13 10:17:14;;;;;;;67.00;5.27;;;14.80;99.90;;;;;;5036427;28;20467;-79
2023/03/13 10:19:42;;;;;;;67.53;6.20;;;14.80;99.90;;;;;;5036657;28;20384;-80
2023/03/13 10:22:21;;;;;;;66.63;5.13;;;14.80;99.90;;;;;;5036667;28;20475;-80
2023/03/13 10:25:08;;;;;;;66.53;6.20;;;14.90;99.90;;;;;;5036669;28;20388;-80
2023/03/13 10:27:50;;;;;;;67.10;6.17;;;15.10;99.90;;;;;;5036236;28;20745;-80
2023/03/13 10:30:35;;;;;;;67.97;6.43;;;15.30;99.90;;;;;;5036947;28;20727;-80
2023/03/13 10:33:07;;;;;;;67.30;6.77;;;15.60;99.90;;;;;;5037128;28;20439;-80
2023/03/13 10:35:38;;;;;;;66.00;6.70;;;15.80;99.90;;;;;;5040277;28;20383;-80
2023/03/13 10:38:09;;;;;;;65.57;5.27;;;15.90;99.90;;;;;;5022353;28;20399;-80
2023/03/13 10:40:35;;;;;;;65.07;3.30;;;16.00;99.90;;;;;;5040060;28;20414;-80
2023/03/13 10:43:03;;;;;;;64.50;3.27;;;16.00;99.90;;;;;;5022441;28;20470;-80
2023/03/13 10:45:35;;;;;;;64.17;3.17;;;16.00;99.90;;;;;;5039931;28;20399;-80
2023/03/13 10:48:10;;;;;;;64.70;3.47;;;16.10;99.90;;;;;;5022444;28;20403;-80
2023/03/13 10:50:36;;;;;;;65.37;4.10;;;16.10;99.90;;;;;;5039907;28;20384;-80
2023/03/13 10:53:22;;;;;;;65.60;4.10;;;16.10;99.90;;;;;;5039969;28;20549;-80
2023/03/13 10:55:48;;;;;;;64.10;3.70;;;16.10;99.90;;;;;;5040566;28;20153;-80
2023/03/13 10:58:29;;;;;;;66.30;4.20;;;16.10;99.90;;;;;;5039933;28;20419;-80
2023/03/13 11:01:22;;;;;;;65.07;4.03;;;16.10;99.90;;;;;;5040112;28;20383;-80
2023/03/13 11:03:50;;;;;;;64.17;3.20;;;16.20;99.90;;;;;;5040039;28;20411;-80
2023/03/13 11:06:29;;;;;;;65.33;3.87;;;16.30;99.90;;;;;;5039499;28;20404;-80
2023/03/13 11:09:12;;;;;;;64.13;3.80;;;16.30;99.90;;;;;;5006475;28;20419;-80
2023/03/13 11:11:49;;;;;;;65.60;3.93;;;16.50;99.90;;;;;;5040004;28;20533;-80
2023/03/13 11:14:21;;;;;;;64.90;4.03;;;16.40;99.90;;;;;;5040251;28;20391;-80
2023/03/13 11:17:03;;;;;;;66.97;4.27;;;16.40;99.90;;;;;;5021974;28;20412;-80
2023/03/13 11:19:44;;;;;;;65.00;4.13;;;16.40;99.90;;;;;;5038220;28;20418;-80
2023/03/13 11:22:13;;;;;;;64.33;3.77;;;16.50;99.90;;;;;;5021457;28;20823;-80
2023/03/13 11:25:16;;;;;;;66.27;4.00;;;16.50;99.90;;;;;;5038909;28;20404;-80
2023/03/13 11:27:50;;;;;;;64.67;2.80;;;16.60;99.90;;;;;;5038857;28;20396;-80
2023/03/13 11:30:52;;;;;;;66.10;3.23;;;16.80;99.90;;;;;;5039518;28;20445;-79
2023/03/13 11:33:34;;;;;;;64.67;2.50;;;17.00;99.90;;;;;;5020671;28;20420;-80
2023/03/13 11:36:24;;;;;;;65.70;2.53;;;17.10;99.90;;;;;;5039223;28;20377;-80
2023/03/13 11:39:07;;;;;;;66.90;2.67;;;17.10;99.90;;;;;;5039382;28;20381;-80
2023/03/13 11:42:12;;;;;;;64.50;2.10;;;17.10;99.90;;;;;;5101865;23;20488;-84
2023/03/13 11:45:02;;;;;;;66.50;2.60;;;17.20;99.90;;;;;;5037057;28;20909;-83
2023/03/13 11:48:01;;;;;;;64.40;2.43;;;17.10;99.90;;;;;;5037786;28;20431;-83
2023/03/13 11:51:01;;;;;;;;;;;;;;;;;;;;;
2023/03/13 11:53:32;;;;;;;64.03;2.47;;;17.70;99.90;;;;;;5037876;28;20423;-83
2023/03/13 11:56:20;;;;;;;66.27;2.33;;;17.90;99.90;;;;;;5038061;28;20378;-83
2023/03/13 11:58:46;;;;;;;63.40;2.00;;;17.80;95.40;;;;;;5037440;28;20401;-83
2023/03/13 12:01:57;;;;;;;63.97;2.30;;;17.30;55.00;;;;;;5020114;28;20408;-82
2023/03/13 12:04:32;;;;;;;65.67;2.60;;;17.10;52.20;;;;;;4981688;28;20152;-84
2023/03/13 12:07:16;;;;;;;64.70;2.60;;;16.90;63.90;;;;;;5037428;28;20377;-85
2023/03/13 12:09:44;;;;;;;63.30;2.30;;;16.90;66.90;;;;;;5020753;28;20910;-84
2023/03/13 12:12:40;;;;;;;67.33;2.60;;;16.90;57.70;;;;;;5037456;28;20841;-84
2023/03/13 12:15:32;;;;;;;63.80;2.33;;;16.90;58.30;;;;;;5037185;28;20377;-84
2023/03/13 12:18:37;;;;;;;64.70;2.20;;;17.00;47.80;;;;;;5019021;28;20414;-84
2023/03/13 12:22:02;;;;;;;64.10;2.10;;;17.20;47.10;;;;;;5037335;28;20987;-84
2023/03/13 12:24:52;;;;;;;64.47;2.30;;;17.30;41.70;;;;;;4976578;28;20403;-83
2023/03/13 12:28:04;;;;;;;63.67;2.47;;;17.50;28.60;;;;;;5009319;28;20493;-84
2023/03/13 12:30:46;;;;;;;65.63;2.60;;;17.40;30.10;;;;;;5035527;28;20415;-83
2023/03/13 12:33:34;;;;;;;63.80;2.00;;;17.40;35.70;;;;;;5017999;28;20440;-83
2023/03/13 12:36:31;;;;;;;64.57;2.73;;;17.20;44.50;;;;;;5017778;28;20407;-83
2023/03/13 12:40:09;;;;;;;63.50;2.20;;;17.20;29.90;;;;;;5036341;28;20385;-83
2023/03/13 12:46:49;;;;;;;65.27;2.30;;;17.20;31.90;;;;;;4970443;28;20410;-84
2023/03/13 12:49:57;;;;;;;64.10;2.80;;;17.20;39.10;;;;;;5035684;28;20412;-84
2023/03/13 12:53:23;;;;;;;65.87;2.70;;;17.10;38.80;;;;;;5035903;28;20421;-84
2023/03/13 12:56:27;;;;;;;67.13;2.63;;;17.10;34.00;;;;;;5019477;28;20407;-85
2023/03/13 12:59:32;;;;;;;64.80;2.80;;;17.00;44.10;;;;;;5039820;28;20381;-86
2023/03/13 13:02:16;;;;;;;70.93;2.87;;;17.10;41.30;;;;;;5031981;28;20463;-85
2023/03/13 13:04:53;;;;;;;63.87;3.00;;;17.10;37.00;;;;;;5039553;28;20460;-85
2023/03/13 13:07:40;;;;;;;65.77;2.80;;;17.00;43.90;;;;;;5038700;28;20392;-86
2023/03/13 13:10:20;;;;;;;65.47;3.03;;;17.10;44.90;;;;;;5039298;28;20544;-85
2023/03/13 13:13:35;;;;;;;63.47;2.63;;;17.10;39.30;;;;;;5038427;28;20425;-84
2023/03/13 13:16:10;;;;;;;65.40;2.93;;;17.20;36.90;;;;;;5037017;28;20415;-84
2023/03/13 13:18:36;;;;;;;64.97;3.00;;;17.00;47.30;;;;;;5021147;28;20422;-84
2023/03/13 13:21:07;;;;;;;65.37;3.03;;;16.90;49.10;;;;;;5020039;28;20495;-84
2023/03/13 13:23:55;;;;;;;65.60;2.57;;;16.90;45.60;;;;;;5037882;28;20864;-84
2023/03/13 13:26:35;;;;;;;63.47;2.50;;;16.90;50.00;;;;;;5037704;28;20438;-84
2023/03/13 13:29:26;;;;;;;64.40;3.00;;;16.70;54.90;;;;;;5036710;28;20436;-83
2023/03/13 13:31:55;;;;;;;63.87;2.60;;;16.50;66.40;;;;;;5017851;28;20439;-84
2023/03/13 13:34:27;;;;;;;64.80;2.80;;;16.50;60.50;;;;;;5035541;28;20407;-83
2023/03/13 13:37:20;;;;;;;65.67;2.83;;;16.60;67.80;;;;;;5017706;28;20415;-83
2023/03/13 13:40:12;;;;;;;66.03;3.13;;;16.70;62.30;;;;;;5034438;28;20429;-83
2023/03/13 13:42:51;;;;;;;64.37;2.47;;;16.70;70.40;;;;;;4988223;28;20813;-83
2023/03/13 13:45:34;;;;;;;64.60;3.10;;;16.60;71.30;;;;;;5035674;28;20451;-85
2023/03/13 13:48:42;;;;;;;63.77;2.70;;;16.60;72.00;;;;;;5035587;28;20876;-83
2023/03/13 13:51:10;;;;;;;68.07;3.23;;;16.40;83.00;;;;;;5035301;28;20528;-84
2023/03/13 13:54:14;;;;;;;65.77;3.10;;;16.20;91.80;;;;;;5035252;28;20998;-83
2023/03/13 13:56:57;;;;;;;64.90;3.27;;;16.50;88.00;;;;;;4957998;28;20557;-85
2023/03/13 14:00:05;;;;;;;64.93;2.97;;;16.60;83.50;;;;;;5012488;28;20775;-85
2023/03/13 14:02:37;;;;;;;64.00;2.70;;;16.80;85.60;;;;;;4974112;28;20494;-84
2023/03/13 14:05:17;;;;;;;66.00;2.67;;;16.70;79.30;;;;;;4958388;28;20412;-83
2023/03/13 14:07:52;;;;;;;64.23;2.57;;;16.60;82.20;;;;;;5011444;28;20452;-84
2023/03/13 14:10:44;;;;;;;65.00;2.93;;;16.80;76.10;;;;;;5017484;28;20400;-84
2023/03/13 14:13:21;;;;;;;63.93;2.80;;;16.70;78.10;;;;;;5034922;28;20516;-83
2023/03/13 14:15:53;;;;;;;63.87;2.53;;;16.80;71.20;;;;;;5035150;28;20481;-83
2023/03/13 14:18:27;;;;;;;67.57;4.30;;;16.70;77.40;;;;;;5018240;28;20401;-84
2023/03/13 14:21:12;;;;;;;64.50;3.17;;;16.90;74.60;;;;;;5034719;28;20456;-84
2023/03/13 14:23:41;;;;;;;65.60;3.00;;;16.90;65.70;;;;;;5016980;28;20472;-83
2023/03/13 14:26:22;;;;;;;68.30;5.67;;;16.90;63.90;;;;;;5034724;28;20413;-83
2023/03/13 14:29:01;;;;;;;64.37;2.73;;;16.90;62.90;;;;;;5017195;28;20417;-85
2023/03/13 14:31:30;;;;;;;66.10;3.13;;;16.90;64.80;;;;;;5035732;28;20742;-84
2023/03/13 14:33:58;;;;;;;65.87;2.70;;;16.90;64.80;;;;;;5033746;28;20961;-84
2023/03/13 14:36:27;;;;;;;63.93;2.80;;;17.00;55.50;;;;;;5034494;28;20411;-83
2023/03/13 14:39:01;;;;;;;63.10;2.60;;;17.00;51.70;;;;;;5017859;28;20409;-84
2023/03/13 14:41:40;;;;;;;68.03;3.50;;;16.90;52.60;;;;;;5020365;28;20560;-85
2023/03/13 14:44:13;;;;;;;65.00;2.33;;;17.00;52.70;;;;;;5038339;28;20382;-84
2023/03/13 14:46:44;;;;;;;67.40;5.07;;;16.90;58.20;;;;;;5020691;28;20410;-85
2023/03/13 14:49:31;;;;;;;66.63;2.57;;;16.80;54.60;;;;;;5020092;28;20406;-85
2023/03/13 14:52:07;;;;;;;64.60;3.10;;;16.80;53.10;;;;;;5038051;28;20432;-85
2023/03/13 14:54:34;;;;;;;65.37;2.83;;;16.70;55.90;;;;;;5037606;28;20419;-85
2023/03/13 14:57:13;;;;;;;68.73;2.90;;;16.70;58.00;;;;;;5020327;28;21013;-84
2023/03/13 14:59:39;;;;;;;63.77;2.57;;;16.60;58.00;;;;;;5037542;28;20416;-85
2023/03/13 15:02:29;;;;;;;63.97;2.87;;;16.50;54.90;;;;;;5035768;28;20514;-84
2023/03/13 15:05:40;;;;;;;63.73;2.70;;;16.50;56.80;;;;;;5019548;28;20471;-85
2023/03/13 15:08:22;;;;;;;63.83;2.57;;;16.50;59.80;;;;;;5036642;28;20841;-85
2023/03/13 15:10:50;;;;;;;63.97;2.40;;;16.70;50.10;;;;;;5036695;28;20384;-85
2023/03/13 15:13:22;;;;;;;64.17;2.80;;;16.60;56.10;;;;;;5037330;28;20757;-84
2023/03/13 15:15:48;;;;;;;63.87;2.77;;;16.60;57.40;;;;;;5038177;28;20951;-84
2023/03/13 15:18:31;;;;;;;63.50;2.60;;;16.70;56.80;;;;;;5038065;28;20482;-85
2023/03/13 15:21:18;;;;;;;64.80;3.50;;;16.60;51.80;;;;;;5038788;28;20422;-84
2023/03/13 15:24:01;;;;;;;64.37;2.20;;;16.70;50.00;;;;;;5039153;28;20452;-85
2023/03/13 15:26:29;;;;;;;63.70;2.50;;;16.70;52.70;;;;;;5040826;28;20407;-84
2023/03/13 15:28:58;;;;;;;64.03;2.63;;;16.60;48.40;;;;;;5039920;28;20763;-84
2023/03/13 15:31:29;;;;;;;64.20;2.50;;;16.60;46.90;;;;;;5040585;28;20926;-83
2023/03/13 15:34:18;;;;;;;64.30;2.50;;;16.60;45.40;;;;;;5039318;28;20433;-84
2023/03/13 15:36:53;;;;;;;63.87;2.90;;;16.60;48.60;;;;;;5022803;28;20429;-84
2023/03/13 15:39:23;;;;;;;63.80;2.80;;;16.60;40.70;;;;;;5040807;28;20415;-83
2023/03/13 15:41:55;;;;;;;63.97;2.63;;;16.60;31.70;;;;;;5034425;28;20506;-84
2023/03/13 15:44:21;;;;;;;64.20;2.57;;;16.50;26.50;;;;;;5040570;28;20894;-84
2023/03/13 15:46:47;;;;;;;63.60;2.50;;;16.60;27.00;;;;;;5041311;28;20459;-84
2023/03/13 15:49:16;;;;;;;64.60;2.83;;;16.50;25.80;;;;;;5021509;28;20401;-84
2023/03/13 15:51:41;;;;;;;63.77;2.60;;;16.50;27.70;;;;;;5039590;28;20404;-84
2023/03/13 15:54:07;;;;;;;63.77;2.87;;;16.50;25.10;;;;;;5039793;28;20442;-83
2023/03/13 15:56:43;;;;;;;67.40;3.03;;;16.60;21.80;;;;;;5039822;28;20150;-86
2023/03/13 15:59:59;;;;;;;64.07;2.90;;;16.70;18.70;;;;;;5036531;28;20925;-83
2023/03/13 16:02:36;;;;;;;63.87;2.60;;;16.90;19.80;;;;;;5011721;28;20464;-83
2023/03/13 16:05:12;;;;;;;63.80;2.67;;;17.10;21.30;;;;;;5037775;28;20378;-85
2023/03/13 16:07:41;;;;;;;64.37;2.30;;;17.20;15.70;;;;;;5020571;28;20408;-84
2023/03/13 16:10:29;;;;;;;65.10;2.83;;;17.20;7.50;;;;;;5020040;28;20415;-83